sensor_id;sensor_type;location;lat;lon;timestamp;pressure;altitude;pressure_sealevel;temperature;humidity
64460;BME280;50828;53.756;21.140;2022-11-24T00:04:29;99401.89;;;-1.57;72.52
64460;BME280;50828;53.756;21.140;2022-11-24T00:09:37;99403.27;;;-1.57;72.62
64460;BME280;50828;53.756;21.140;2022-11-24T00:14:45;99401.19;;;-1.56;72.53
64460;BME280;50828;53.756;21.140;2022-11-24T00:19:53;99400.85;;;-1.56;72.57
64460;BME280;50828;53.756;21.140;2022-11-24T00:25:01;99398.44;;;-1.56;72.41
64460;BME280;50828;53.756;21.140;2022-11-24T00:30:10;99403.45;;;-1.56;72.46
64460;BME280;50828;53.756;21.140;2022-11-24T00:35:18;99404.30;;;-1.56;72.53
64460;BME280;50828;53.756;21.140;2022-11-24T00:40:26;99404.48;;;-1.55;72.56
64460;BME280;50828;53.756;21.140;2022-11-24T00:45:39;99400.85;;;-1.55;72.41
64460;BME280;50828;53.756;21.140;2022-11-24T00:50:56;99391.52;;;-1.54;72.60
64460;BME280;50828;53.756;21.140;2022-11-24T00:56:04;99382.35;;;-1.54;72.45
64460;BME280;50828;53.756;21.140;2022-11-24T01:01:14;99374.76;;;-1.53;72.41
64460;BME280;50828;53.756;21.140;2022-11-24T01:06:23;99361.65;;;-1.56;72.53
64460;BME280;50828;53.756;21.140;2022-11-24T01:11:32;99367.17;;;-1.53;72.45
64460;BME280;50828;53.756;21.140;2022-11-24T01:17:00;99380.12;;;-1.54;72.32
64460;BME280;50828;53.756;21.140;2022-11-24T01:22:08;99385.84;;;-1.55;72.31
64460;BME280;50828;53.756;21.140;2022-11-24T01:27:15;99379.09;;;-1.57;72.31
64460;BME280;50828;53.756;21.140;2022-11-24T01:32:23;99382.04;;;-1.58;72.38
64460;BME280;50828;53.756;21.140;2022-11-24T01:37:31;99405.86;;;-1.58;72.40
64460;BME280;50828;53.756;21.140;2022-11-24T01:42:51;99415.17;;;-1.60;72.36
64460;BME280;50828;53.756;21.140;2022-11-24T01:47:58;99411.05;;;-1.61;72.30
64460;BME280;50828;53.756;21.140;2022-11-24T01:53:08;99393.95;;;-1.62;72.35
64460;BME280;50828;53.756;21.140;2022-11-24T01:58:20;99389.64;;;-1.61;72.34
64460;BME280;50828;53.756;21.140;2022-11-24T02:03:27;99402.42;;;-1.63;72.38
64460;BME280;50828;53.756;21.140;2022-11-24T02:08:41;99377.73;;;-1.64;72.33
64460;BME280;50828;53.756;21.140;2022-11-24T02:13:52;99384.83;;;-1.65;72.50
64460;BME280;50828;53.756;21.140;2022-11-24T02:19:00;99396.72;;;-1.66;72.38
64460;BME280;50828;53.756;21.140;2022-11-24T02:24:12;99391.55;;;-1.67;72.32
64460;BME280;50828;53.756;21.140;2022-11-24T02:29:24;99387.76;;;-1.67;72.41
64460;BME280;50828;53.756;21.140;2022-11-24T02:34:32;99393.80;;;-1.67;72.45
64460;BME280;50828;53.756;21.140;2022-11-24T02:39:40;99390.17;;;-1.68;72.41
64460;BME280;50828;53.756;21.140;2022-11-24T02:44:49;99395.87;;;-1.66;72.58
64460;BME280;50828;53.756;21.140;2022-11-24T02:50:00;99382.23;;;-1.65;72.48
64460;BME280;50828;53.756;21.140;2022-11-24T02:55:09;99387.41;;;-1.64;72.56
64460;BME280;50828;53.756;21.140;2022-11-24T03:00:18;99379.12;;;-1.64;72.44
64460;BME280;50828;53.756;21.140;2022-11-24T03:05:26;99389.65;;;-1.64;72.41
64460;BME280;50828;53.756;21.140;2022-11-24T03:10:34;99400.17;;;-1.66;72.56
64460;BME280;50828;53.756;21.140;2022-11-24T03:15:41;99403.11;;;-1.64;72.59
64460;BME280;50828;53.756;21.140;2022-11-24T03:20:49;99394.83;;;-1.64;72.60
64460;BME280;50828;53.756;21.140;2022-11-24T03:25:56;99401.03;;;-1.62;72.49
64460;BME280;50828;53.756;21.140;2022-11-24T03:31:13;99401.04;;;-1.61;72.60
64460;BME280;50828;53.756;21.140;2022-11-24T03:36:20;99398.09;;;-1.60;72.50
64460;BME280;50828;53.756;21.140;2022-11-24T03:41:28;99390.84;;;-1.61;72.48
64460;BME280;50828;53.756;21.140;2022-11-24T03:46:36;99392.58;;;-1.59;72.65
64460;BME280;50828;53.756;21.140;2022-11-24T03:51:44;99387.73;;;-1.59;72.55
64460;BME280;50828;53.756;21.140;2022-11-24T03:56:51;99387.38;;;-1.57;72.54
64460;BME280;50828;53.756;21.140;2022-11-24T04:01:58;99387.38;;;-1.56;72.70
64460;BME280;50828;53.756;21.140;2022-11-24T04:07:06;99398.60;;;-1.55;72.76
64460;BME280;50828;53.756;21.140;2022-11-24T04:12:13;99396.70;;;-1.53;72.66
64460;BME280;50828;53.756;21.140;2022-11-24T04:17:47;99400.14;;;-1.52;72.68
64460;BME280;50828;53.756;21.140;2022-11-24T04:22:55;99398.77;;;-1.49;72.75
64460;BME280;50828;53.756;21.140;2022-11-24T04:28:03;99402.90;;;-1.49;72.67
64460;BME280;50828;53.756;21.140;2022-11-24T04:33:11;99406.02;;;-1.48;72.73
64460;BME280;50828;53.756;21.140;2022-11-24T04:38:19;99408.43;;;-1.47;72.68
64460;BME280;50828;53.756;21.140;2022-11-24T04:43:49;99409.80;;;-1.46;72.65
64460;BME280;50828;53.756;21.140;2022-11-24T04:48:56;99407.05;;;-1.45;72.71
64460;BME280;50828;53.756;21.140;2022-11-24T04:54:04;99408.59;;;-1.43;72.65
64460;BME280;50828;53.756;21.140;2022-11-24T04:59:15;99408.59;;;-1.42;72.73
64460;BME280;50828;53.756;21.140;2022-11-24T05:04:22;99406.85;;;-1.41;72.62
64460;BME280;50828;53.756;21.140;2022-11-24T05:09:30;99417.05;;;-1.41;72.65
64460;BME280;50828;53.756;21.140;2022-11-24T05:14:58;99416.01;;;-1.40;72.64
64460;BME280;50828;53.756;21.140;2022-11-24T05:20:07;99417.05;;;-1.39;72.77
64460;BME280;50828;53.756;21.140;2022-11-24T05:25:15;99415.14;;;-1.37;72.62
64460;BME280;50828;53.756;21.140;2022-11-24T05:30:22;99413.75;;;-1.37;72.60
64460;BME280;50828;53.756;21.140;2022-11-24T05:35:30;99420.13;;;-1.34;72.82
64460;BME280;50828;53.756;21.140;2022-11-24T05:40:38;99417.70;;;-1.33;72.74
64460;BME280;50828;53.756;21.140;2022-11-24T05:45:45;99424.97;;;-1.31;72.64
64460;BME280;50828;53.756;21.140;2022-11-24T05:50:56;99426.34;;;-1.31;72.65
64460;BME280;50828;53.756;21.140;2022-11-24T05:56:06;99432.38;;;-1.28;72.64
64460;BME280;50828;53.756;21.140;2022-11-24T06:01:13;99437.57;;;-1.29;72.61
64460;BME280;50828;53.756;21.140;2022-11-24T06:06:21;99437.06;;;-1.30;72.42
64460;BME280;50828;53.756;21.140;2022-11-24T06:11:28;99437.58;;;-1.32;72.50
64460;BME280;50828;53.756;21.140;2022-11-24T06:16:36;99444.65;;;-1.32;72.57
64460;BME280;50828;53.756;21.140;2022-11-24T06:21:43;99456.41;;;-1.32;72.59
64460;BME280;50828;53.756;21.140;2022-11-24T06:26:51;99465.39;;;-1.32;72.50
64460;BME280;50828;53.756;21.140;2022-11-24T06:31:58;99468.67;;;-1.32;72.46
64460;BME280;50828;53.756;21.140;2022-11-24T06:37:06;99463.31;;;-1.31;72.44
64460;BME280;50828;53.756;21.140;2022-11-24T06:42:13;99461.07;;;-1.31;72.51
64460;BME280;50828;53.756;21.140;2022-11-24T06:47:23;99457.61;;;-1.31;72.62
64460;BME280;50828;53.756;21.140;2022-11-24T06:52:31;99468.84;;;-1.29;72.73
64460;BME280;50828;53.756;21.140;2022-11-24T06:57:39;99474.90;;;-1.28;72.57
64460;BME280;50828;53.756;21.140;2022-11-24T07:02:46;99486.63;;;-1.26;72.51
64460;BME280;50828;53.756;21.140;2022-11-24T07:07:54;99488.88;;;-1.25;72.65
64460;BME280;50828;53.756;21.140;2022-11-24T07:13:02;99495.60;;;-1.25;72.55
64460;BME280;50828;53.756;21.140;2022-11-24T07:18:09;99491.45;;;-1.25;72.58
64460;BME280;50828;53.756;21.140;2022-11-24T07:23:17;99492.14;;;-1.24;72.50
64460;BME280;50828;53.756;21.140;2022-11-24T07:28:24;99500.10;;;-1.23;72.49
64460;BME280;50828;53.756;21.140;2022-11-24T07:33:32;99498.19;;;-1.22;72.66
64460;BME280;50828;53.756;21.140;2022-11-24T07:38:39;99489.02;;;-1.20;72.56
64460;BME280;50828;53.756;21.140;2022-11-24T07:43:47;99490.06;;;-1.18;72.66
64460;BME280;50828;53.756;21.140;2022-11-24T07:48:56;99495.59;;;-1.18;72.40
64460;BME280;50828;53.756;21.140;2022-11-24T07:54:03;99503.20;;;-1.18;72.38
64460;BME280;50828;53.756;21.140;2022-11-24T07:59:13;99500.27;;;-1.22;72.55
64460;BME280;50828;53.756;21.140;2022-11-24T08:04:21;99497.17;;;-1.24;72.43
64460;BME280;50828;53.756;21.140;2022-11-24T08:09:29;99515.46;;;-1.16;72.35
64460;BME280;50828;53.756;21.140;2022-11-24T08:14:36;99514.58;;;-1.15;72.36
64460;BME280;50828;53.756;21.140;2022-11-24T08:19:44;99518.23;;;-1.13;72.33
64460;BME280;50828;53.756;21.140;2022-11-24T08:24:51;99513.20;;;-1.13;72.35
64460;BME280;50828;53.756;21.140;2022-11-24T08:29:59;99514.42;;;-1.13;72.29
64460;BME280;50828;53.756;21.140;2022-11-24T08:35:08;99512.35;;;-1.12;72.34
64460;BME280;50828;53.756;21.140;2022-11-24T08:40:17;99513.73;;;-1.12;72.34
64460;BME280;50828;53.756;21.140;2022-11-24T08:45:24;99517.87;;;-1.12;72.38
64460;BME280;50828;53.756;21.140;2022-11-24T08:50:35;99515.45;;;-1.13;72.45
64460;BME280;50828;53.756;21.140;2022-11-24T08:55:43;99517.88;;;-1.12;72.29
64460;BME280;50828;53.756;21.140;2022-11-24T09:00:50;99520.46;;;-1.11;72.42
64460;BME280;50828;53.756;21.140;2022-11-24T09:05:58;99523.92;;;-1.10;72.27
64460;BME280;50828;53.756;21.140;2022-11-24T09:11:07;99517.35;;;-1.08;72.34
64460;BME280;50828;53.756;21.140;2022-11-24T09:16:16;99512.67;;;-1.06;72.49
64460;BME280;50828;53.756;21.140;2022-11-24T09:21:24;99507.31;;;-1.04;72.37
64460;BME280;50828;53.756;21.140;2022-11-24T09:26:33;99505.73;;;-1.00;72.42
64460;BME280;50828;53.756;21.140;2022-11-24T09:31:41;99505.56;;;-0.97;72.40
64460;BME280;50828;53.756;21.140;2022-11-24T09:36:48;99510.39;;;-0.93;72.41
64460;BME280;50828;53.756;21.140;2022-11-24T09:42:15;99505.54;;;-0.90;72.55
64460;BME280;50828;53.756;21.140;2022-11-24T09:47:40;99509.84;;;-0.85;72.57
64460;BME280;50828;53.756;21.140;2022-11-24T09:52:55;99506.36;;;-0.82;72.36
64460;BME280;50828;53.756;21.140;2022-11-24T09:58:23;99513.27;;;-0.79;72.52
64460;BME280;50828;53.756;21.140;2022-11-24T10:03:40;99508.44;;;-0.78;72.47
64460;BME280;50828;53.756;21.140;2022-11-24T10:09:20;99506.19;;;-0.77;72.29
64460;BME280;50828;53.756;21.140;2022-11-24T10:14:45;99502.56;;;-0.77;72.41
64460;BME280;50828;53.756;21.140;2022-11-24T10:20:04;99502.39;;;-0.75;72.33
64460;BME280;50828;53.756;21.140;2022-11-24T10:25:20;99494.42;;;-0.76;72.23
64460;BME280;50828;53.756;21.140;2022-11-24T10:30:31;99495.11;;;-0.74;72.30
64460;BME280;50828;53.756;21.140;2022-11-24T10:35:42;99491.33;;;-0.76;72.20
64460;BME280;50828;53.756;21.140;2022-11-24T10:40:53;99496.15;;;-0.75;72.25
64460;BME280;50828;53.756;21.140;2022-11-24T10:46:12;99504.10;;;-0.74;72.29
64460;BME280;50828;53.756;21.140;2022-11-24T10:51:42;99510.67;;;-0.73;72.24
64460;BME280;50828;53.756;21.140;2022-11-24T10:56:54;99512.22;;;-0.74;72.22
64460;BME280;50828;53.756;21.140;2022-11-24T11:07:27;99535.38;;;-0.71;72.14
64460;BME280;50828;53.756;21.140;2022-11-24T11:12:35;99539.02;;;-0.70;72.23
64460;BME280;50828;53.756;21.140;2022-11-24T11:17:54;99537.62;;;-0.69;72.20
64460;BME280;50828;53.756;21.140;2022-11-24T11:23:11;99534.34;;;-0.67;72.13
64460;BME280;50828;53.756;21.140;2022-11-24T11:28:28;99531.21;;;-0.66;72.08
64460;BME280;50828;53.756;21.140;2022-11-24T11:33:36;99524.81;;;-0.66;72.19
64460;BME280;50828;53.756;21.140;2022-11-24T11:39:04;99520.66;;;-0.65;72.04
64460;BME280;50828;53.756;21.140;2022-11-24T11:44:20;99520.48;;;-0.63;72.19
64460;BME280;50828;53.756;21.140;2022-11-24T11:49:32;99522.71;;;-0.61;72.06
64460;BME280;50828;53.756;21.140;2022-11-24T11:54:59;99525.48;;;-0.60;71.98
64460;BME280;50828;53.756;21.140;2022-11-24T12:00:15;99533.27;;;-0.58;72.04
64460;BME280;50828;53.756;21.140;2022-11-24T12:05:32;99538.79;;;-0.57;71.91
64460;BME280;50828;53.756;21.140;2022-11-24T12:10:49;99534.81;;;-0.57;72.05
64460;BME280;50828;53.756;21.140;2022-11-24T12:16:07;99535.68;;;-0.56;71.97
64460;BME280;50828;53.756;21.140;2022-11-24T12:21:18;99531.34;;;-0.54;71.91
64460;BME280;50828;53.756;21.140;2022-11-24T12:26:36;99526.50;;;-0.53;71.92
64460;BME280;50828;53.756;21.140;2022-11-24T12:31:54;99529.94;;;-0.51;71.89
64460;BME280;50828;53.756;21.140;2022-11-24T12:37:17;99530.29;;;-0.50;71.89
64460;BME280;50828;53.756;21.140;2022-11-24T12:42:37;99533.73;;;-0.49;71.89
64460;BME280;50828;53.756;21.140;2022-11-24T12:53:38;99534.42;;;-0.46;71.82
64460;BME280;50828;53.756;21.140;2022-11-24T12:58:53;99539.25;;;-0.45;71.73
64460;BME280;50828;53.756;21.140;2022-11-24T13:04:14;99536.33;;;-0.45;71.75
64460;BME280;50828;53.756;21.140;2022-11-24T13:09:27;99534.42;;;-0.44;71.86
64460;BME280;50828;53.756;21.140;2022-11-24T13:14:37;99517.84;;;-0.51;71.69
64460;BME280;50828;53.756;21.140;2022-11-24T13:19:45;99531.29;;;-0.43;71.79
64460;BME280;50828;53.756;21.140;2022-11-24T13:25:15;99528.85;;;-0.42;71.80
64460;BME280;50828;53.756;21.140;2022-11-24T13:36:29;99530.93;;;-0.40;71.59
64460;BME280;50828;53.756;21.140;2022-11-24T13:42:09;99536.63;;;-0.38;71.68
64460;BME280;50828;53.756;21.140;2022-11-24T13:47:41;99542.52;;;-0.39;71.58
64460;BME280;50828;53.756;21.140;2022-11-24T13:52:55;99547.20;;;-0.39;71.57
64460;BME280;50828;53.756;21.140;2022-11-24T13:58:30;99549.27;;;-0.39;71.52
64460;BME280;50828;53.756;21.140;2022-11-24T14:03:53;99552.73;;;-0.39;71.46
64460;BME280;50828;53.756;21.140;2022-11-24T14:09:29;99548.23;;;-0.40;71.52
64460;BME280;50828;53.756;21.140;2022-11-24T14:14:39;99543.91;;;-0.40;71.52
64460;BME280;50828;53.756;21.140;2022-11-24T14:19:48;99544.61;;;-0.42;71.46
64460;BME280;50828;53.756;21.140;2022-11-24T14:24:58;99550.31;;;-0.43;71.39
64460;BME280;50828;53.756;21.140;2022-11-24T14:30:18;99553.96;;;-0.46;71.36
64460;BME280;50828;53.756;21.140;2022-11-24T14:35:28;99564.88;;;-0.47;71.50
64460;BME280;50828;53.756;21.140;2022-11-24T14:40:42;99567.48;;;-0.48;71.44
64460;BME280;50828;53.756;21.140;2022-11-24T14:45:55;99564.52;;;-0.48;71.48
64460;BME280;50828;53.756;21.140;2022-11-24T14:51:17;99569.90;;;-0.49;71.57
64460;BME280;50828;53.756;21.140;2022-11-24T14:56:28;99575.61;;;-0.48;71.42
64460;BME280;50828;53.756;21.140;2022-11-24T15:01:36;99573.18;;;-0.49;71.44
64460;BME280;50828;53.756;21.140;2022-11-24T15:06:44;99579.92;;;-0.50;71.48
64460;BME280;50828;53.756;21.140;2022-11-24T15:11:53;99581.15;;;-0.50;71.48
64460;BME280;50828;53.756;21.140;2022-11-24T15:17:01;99582.17;;;-0.51;71.59
64460;BME280;50828;53.756;21.140;2022-11-24T15:27:54;99591.69;;;-0.51;71.49
64460;BME280;50828;53.756;21.140;2022-11-24T15:33:02;99592.39;;;-0.51;71.51
64460;BME280;50828;53.756;21.140;2022-11-24T15:38:16;99593.77;;;-0.52;71.40
64460;BME280;50828;53.756;21.140;2022-11-24T15:43:28;99593.42;;;-0.53;71.42
64460;BME280;50828;53.756;21.140;2022-11-24T15:48:36;99601.91;;;-0.53;71.49
64460;BME280;50828;53.756;21.140;2022-11-24T15:53:46;99603.13;;;-0.53;71.47
64460;BME280;50828;53.756;21.140;2022-11-24T15:58:56;99605.38;;;-0.54;71.62
64460;BME280;50828;53.756;21.140;2022-11-24T16:04:03;99608.31;;;-0.54;71.52
64460;BME280;50828;53.756;21.140;2022-11-24T16:09:14;99610.39;;;-0.54;71.56
64460;BME280;50828;53.756;21.140;2022-11-24T16:14:22;99612.65;;;-0.56;71.45
64460;BME280;50828;53.756;21.140;2022-11-24T16:19:30;99605.56;;;-0.57;71.54
64460;BME280;50828;53.756;21.140;2022-11-24T16:24:44;99601.76;;;-0.57;71.47
64460;BME280;50828;53.756;21.140;2022-11-24T16:29:52;99601.41;;;-0.58;71.55
64460;BME280;50828;53.756;21.140;2022-11-24T16:34:59;99605.03;;;-0.59;71.47
64460;BME280;50828;53.756;21.140;2022-11-24T16:40:09;99610.76;;;-0.61;71.45
64460;BME280;50828;53.756;21.140;2022-11-24T16:45:16;99620.79;;;-0.60;71.44
64460;BME280;50828;53.756;21.140;2022-11-24T16:50:23;99623.20;;;-0.61;71.42
64460;BME280;50828;53.756;21.140;2022-11-24T16:55:31;99628.05;;;-0.61;71.49
64460;BME280;50828;53.756;21.140;2022-11-24T17:00:38;99634.30;;;-0.62;71.48
64460;BME280;50828;53.756;21.140;2022-11-24T17:05:57;99636.19;;;-0.62;71.37
64460;BME280;50828;53.756;21.140;2022-11-24T17:11:08;99639.98;;;-0.61;71.38
64460;BME280;50828;53.756;21.140;2022-11-24T17:16:17;99643.96;;;-0.59;71.50
64460;BME280;50828;53.756;21.140;2022-11-24T17:21:26;99644.84;;;-0.57;71.32
64460;BME280;50828;53.756;21.140;2022-11-24T17:26:34;99647.24;;;-0.54;71.39
64460;BME280;50828;53.756;21.140;2022-11-24T17:31:41;99655.54;;;-0.53;71.43
64460;BME280;50828;53.756;21.140;2022-11-24T17:36:48;99669.20;;;-0.52;71.38
64460;BME280;50828;53.756;21.140;2022-11-24T17:41:57;99679.75;;;-0.51;71.55
64460;BME280;50828;53.756;21.140;2022-11-24T17:47:04;99683.73;;;-0.51;71.41
64460;BME280;50828;53.756;21.140;2022-11-24T17:52:12;99681.14;;;-0.50;71.53
64460;BME280;50828;53.756;21.140;2022-11-24T17:57:20;99680.97;;;-0.50;71.46
64460;BME280;50828;53.756;21.140;2022-11-24T18:02:28;99680.44;;;-0.50;71.33
64460;BME280;50828;53.756;21.140;2022-11-24T18:07:37;99675.25;;;-0.49;71.32
64460;BME280;50828;53.756;21.140;2022-11-24T18:12:45;99667.64;;;-0.49;71.45
64460;BME280;50828;53.756;21.140;2022-11-24T18:17:53;99658.64;;;-0.48;71.41
64460;BME280;50828;53.756;21.140;2022-11-24T18:23:01;99656.05;;;-0.47;71.31
64460;BME280;50828;53.756;21.140;2022-11-24T18:28:10;99658.98;;;-0.46;71.40
64460;BME280;50828;53.756;21.140;2022-11-24T18:33:18;99656.90;;;-0.45;71.39
64460;BME280;50828;53.756;21.140;2022-11-24T18:38:26;99653.59;;;-0.44;71.39
64460;BME280;50828;53.756;21.140;2022-11-24T18:43:36;99659.84;;;-0.43;71.26
64460;BME280;50828;53.756;21.140;2022-11-24T18:48:44;99662.25;;;-0.41;71.47
64460;BME280;50828;53.756;21.140;2022-11-24T18:53:53;99669.52;;;-0.40;71.31
64460;BME280;50828;53.756;21.140;2022-11-24T18:59:02;99679.91;;;-0.39;71.40
64460;BME280;50828;53.756;21.140;2022-11-24T19:04:10;99679.55;;;-0.38;71.31
64460;BME280;50828;53.756;21.140;2022-11-24T19:09:19;99688.19;;;-0.36;71.41
64460;BME280;50828;53.756;21.140;2022-11-24T19:14:27;99683.69;;;-0.34;71.41
64460;BME280;50828;53.756;21.140;2022-11-24T19:19:35;99690.78;;;-0.34;71.37
64460;BME280;50828;53.756;21.140;2022-11-24T19:24:44;99697.70;;;-0.32;71.32
64460;BME280;50828;53.756;21.140;2022-11-24T19:29:54;99694.42;;;-0.31;71.39
64460;BME280;50828;53.756;21.140;2022-11-24T19:35:02;99700.81;;;-0.29;71.45
64460;BME280;50828;53.756;21.140;2022-11-24T19:40:11;99707.57;;;-0.30;71.35
64460;BME280;50828;53.756;21.140;2022-11-24T19:45:18;99703.05;;;-0.30;71.19
64460;BME280;50828;53.756;21.140;2022-11-24T19:50:26;99709.99;;;-0.29;71.17
64460;BME280;50828;53.756;21.140;2022-11-24T19:55:34;99716.73;;;-0.29;71.26
64460;BME280;50828;53.756;21.140;2022-11-24T20:00:41;99720.02;;;-0.29;71.26
64460;BME280;50828;53.756;21.140;2022-11-24T20:05:56;99726.09;;;-0.28;71.34
64460;BME280;50828;53.756;21.140;2022-11-24T20:11:05;99728.67;;;-0.28;71.22
64460;BME280;50828;53.756;21.140;2022-11-24T20:16:14;99727.45;;;-0.26;71.25
64460;BME280;50828;53.756;21.140;2022-11-24T20:21:23;99730.73;;;-0.26;71.32
64460;BME280;50828;53.756;21.140;2022-11-24T20:26:34;99740.42;;;-0.24;71.29
64460;BME280;50828;53.756;21.140;2022-11-24T20:31:43;99744.42;;;-0.24;71.23
64460;BME280;50828;53.756;21.140;2022-11-24T20:36:51;99736.79;;;-0.22;71.29
64460;BME280;50828;53.756;21.140;2022-11-24T20:41:58;99738.17;;;-0.21;71.34
64460;BME280;50828;53.756;21.140;2022-11-24T20:47:06;99745.27;;;-0.21;71.27
64460;BME280;50828;53.756;21.140;2022-11-24T20:52:14;99744.74;;;-0.21;71.21
64460;BME280;50828;53.756;21.140;2022-11-24T20:57:21;99755.66;;;-0.21;71.24
64460;BME280;50828;53.756;21.140;2022-11-24T21:02:29;99761.19;;;-0.21;71.25
64460;BME280;50828;53.756;21.140;2022-11-24T21:07:36;99760.50;;;-0.21;71.25
64460;BME280;50828;53.756;21.140;2022-11-24T21:12:44;99754.61;;;-0.22;71.29
64460;BME280;50828;53.756;21.140;2022-11-24T21:17:51;99759.98;;;-0.22;71.19
64460;BME280;50828;53.756;21.140;2022-11-24T21:22:59;99755.32;;;-0.25;71.17
64460;BME280;50828;53.756;21.140;2022-11-24T21:28:08;99758.27;;;-0.26;71.24
64460;BME280;50828;53.756;21.140;2022-11-24T21:33:17;99756.36;;;-0.26;71.29
64460;BME280;50828;53.756;21.140;2022-11-24T21:38:26;99762.42;;;-0.26;71.37
64460;BME280;50828;53.756;21.140;2022-11-24T21:43:34;99764.33;;;-0.28;71.35
64460;BME280;50828;53.756;21.140;2022-11-24T21:48:42;99773.14;;;-0.26;71.43
64460;BME280;50828;53.756;21.140;2022-11-24T21:53:49;99782.48;;;-0.26;71.43
64460;BME280;50828;53.756;21.140;2022-11-24T21:58:57;99782.48;;;-0.26;71.39
64460;BME280;50828;53.756;21.140;2022-11-24T22:04:05;99776.09;;;-0.27;71.39
64460;BME280;50828;53.756;21.140;2022-11-24T22:09:12;99770.04;;;-0.29;71.33
64460;BME280;50828;53.756;21.140;2022-11-24T22:14:22;99775.91;;;-0.29;71.44
64460;BME280;50828;53.756;21.140;2022-11-24T22:19:30;99777.65;;;-0.31;71.44
64460;BME280;50828;53.756;21.140;2022-11-24T22:24:37;99768.65;;;-0.33;71.52
64460;BME280;50828;53.756;21.140;2022-11-24T22:29:46;99765.71;;;-0.33;71.52
64460;BME280;50828;53.756;21.140;2022-11-24T22:34:58;99768.13;;;-0.35;71.56
64460;BME280;50828;53.756;21.140;2022-11-24T22:40:08;99773.32;;;-0.34;71.59
64460;BME280;50828;53.756;21.140;2022-11-24T22:45:16;99779.91;;;-0.34;71.68
64460;BME280;50828;53.756;21.140;2022-11-24T22:50:23;99782.33;;;-0.32;71.71
64460;BME280;50828;53.756;21.140;2022-11-24T22:55:30;99774.71;;;-0.38;71.70
64460;BME280;50828;53.756;21.140;2022-11-24T23:00:39;99786.30;;;-0.28;71.69
64460;BME280;50828;53.756;21.140;2022-11-24T23:05:47;99782.14;;;-0.27;71.73
64460;BME280;50828;53.756;21.140;2022-11-24T23:10:59;99784.56;;;-0.26;71.75
64460;BME280;50828;53.756;21.140;2022-11-24T23:16:09;99785.44;;;-0.24;71.74
64460;BME280;50828;53.756;21.140;2022-11-24T23:21:17;99784.57;;;-0.23;71.79
64460;BME280;50828;53.756;21.140;2022-11-24T23:26:26;99788.20;;;-0.21;71.72
64460;BME280;50828;53.756;21.140;2022-11-24T23:31:34;99789.59;;;-0.20;71.71
64460;BME280;50828;53.756;21.140;2022-11-24T23:36:44;99792.34;;;-0.19;71.76
64460;BME280;50828;53.756;21.140;2022-11-24T23:41:52;99793.03;;;-0.18;71.67
64460;BME280;50828;53.756;21.140;2022-11-24T23:46:59;99794.25;;;-0.16;71.70
64460;BME280;50828;53.756;21.140;2022-11-24T23:52:07;99786.63;;;-0.16;71.71
64460;BME280;50828;53.756;21.140;2022-11-24T23:57:14;99781.09;;;-0.15;71.72
